createdAt,value
2019-03-13T00:02:48.840Z,14.50
2019-03-13T00:05:19.017Z,14.50
2019-03-13T00:07:49.646Z,15.50
2019-03-13T00:10:19.675Z,17.00
2019-03-13T00:12:49.645Z,23.25
2019-03-13T00:15:19.683Z,28.75
2019-03-13T00:17:49.923Z,13.25
2019-03-13T00:20:19.896Z,15.50
2019-03-13T00:22:49.916Z,16.50
2019-03-13T00:25:21.557Z,11.50
2019-03-13T00:27:51.544Z,15.50
2019-03-13T00:30:21.479Z,12.50
2019-03-13T00:32:51.557Z,13.00
2019-03-13T00:35:21.766Z,13.50
2019-03-13T00:37:51.762Z,14.50
2019-03-13T00:40:21.690Z,14.25
2019-03-13T00:42:51.689Z,10.00
2019-03-13T00:45:21.733Z,14.50
2019-03-13T00:47:51.716Z,7.00
2019-03-13T00:50:27.530Z,3.00
2019-03-13T00:52:57.490Z,9.50
2019-03-13T00:55:27.545Z,6.75
2019-03-13T00:57:57.523Z,7.25
2019-03-13T01:00:35.011Z,5.75
2019-03-13T01:03:06.704Z,6.50
2019-03-13T01:05:44.303Z,4.50
2019-03-13T01:08:14.368Z,5.25
2019-03-13T01:10:44.384Z,3.50
2019-03-13T01:13:14.490Z,3.75
2019-03-13T01:15:44.503Z,4.00
2019-03-13T01:18:14.539Z,4.25
2019-03-13T01:20:44.571Z,3.75
2019-03-13T01:23:14.630Z,3.25
2019-03-13T01:25:44.779Z,4.00
2019-03-13T01:28:14.859Z,4.00
2019-03-13T01:30:46.463Z,5.00
2019-03-13T01:33:21.028Z,5.50
2019-03-13T01:35:52.591Z,3.75
2019-03-13T01:38:22.790Z,3.00
2019-03-13T01:40:52.846Z,3.00
2019-03-13T01:43:22.896Z,4.00
2019-03-13T01:45:52.903Z,3.25
2019-03-13T01:48:22.953Z,2.50
2019-03-13T01:50:52.968Z,2.50
2019-03-13T01:53:23.125Z,0.00
2019-03-13T01:55:53.306Z,3.75
2019-03-13T01:58:23.422Z,1.50
2019-03-13T02:00:53.759Z,3.00
2019-03-13T02:03:23.818Z,1.50
2019-03-13T02:05:53.982Z,3.25
2019-03-13T02:08:24.042Z,2.50
2019-03-13T02:10:54.070Z,3.00
2019-03-13T02:13:24.207Z,1.00
2019-03-13T02:15:54.343Z,2.50
2019-03-13T02:18:24.750Z,1.00
2019-03-13T02:20:54.767Z,4.00
2019-03-13T02:23:24.782Z,2.00
2019-03-13T02:25:54.962Z,2.00
2019-03-13T02:28:25.040Z,2.00
2019-03-13T02:30:57.905Z,3.00
2019-03-13T02:33:27.975Z,1.00
2019-03-13T02:35:58.340Z,3.25
2019-03-13T02:38:28.387Z,2.50
2019-03-13T02:40:58.439Z,3.75
2019-03-13T02:43:28.487Z,2.50
2019-03-13T02:45:58.595Z,2.00
2019-03-13T02:48:28.674Z,3.00
2019-03-13T02:50:58.710Z,1.00
2019-03-13T02:53:28.874Z,3.00
2019-03-13T02:55:59.110Z,1.00
2019-03-13T02:58:29.419Z,0.50
2019-03-13T03:01:17.415Z,3.00
2019-03-13T03:03:55.269Z,2.00
2019-03-13T03:06:25.419Z,3.00
2019-03-13T03:08:55.477Z,2.00
2019-03-13T03:11:25.516Z,3.00
2019-03-13T03:13:55.616Z,2.00
2019-03-13T03:16:25.615Z,2.50
2019-03-13T03:18:55.687Z,1.00
2019-03-13T03:21:25.704Z,1.00
2019-03-13T03:23:56.070Z,2.50
2019-03-13T03:26:26.164Z,1.00
2019-03-13T03:28:56.209Z,3.00
2019-03-13T03:31:26.211Z,1.00
2019-03-13T03:34:00.833Z,1.50
2019-03-13T03:36:32.514Z,1.50
2019-03-13T03:39:05.260Z,1.00
2019-03-13T03:41:35.378Z,3.25
2019-03-13T03:44:05.356Z,3.00
2019-03-13T03:46:35.783Z,1.00
2019-03-13T03:49:05.748Z,1.00
2019-03-13T03:51:35.762Z,0.00
2019-03-13T03:54:05.771Z,2.00
2019-03-13T03:56:35.768Z,1.50
2019-03-13T03:59:06.774Z,1.00
2019-03-13T04:01:36.804Z,3.50
2019-03-13T04:04:06.783Z,1.00
2019-03-13T04:06:36.840Z,1.00
2019-03-13T04:09:07.049Z,2.50
2019-03-13T04:11:37.065Z,2.00
2019-03-13T04:14:07.075Z,2.50
2019-03-13T04:16:37.102Z,4.00
2019-03-13T04:19:07.087Z,2.25
2019-03-13T04:21:37.132Z,2.00
2019-03-13T04:24:07.106Z,3.00
2019-03-13T04:26:37.124Z,6.00
2019-03-13T04:29:07.098Z,4.00
2019-03-13T04:31:37.225Z,5.00
2019-03-13T04:34:07.229Z,3.75
2019-03-13T04:36:38.275Z,3.50
2019-03-13T04:39:08.257Z,3.50
2019-03-13T04:41:38.283Z,1.00
2019-03-13T04:44:08.287Z,0.75
2019-03-13T04:46:38.449Z,3.25
2019-03-13T04:49:08.428Z,3.00
2019-03-13T04:51:38.489Z,2.50
2019-03-13T04:54:08.502Z,3.00
2019-03-13T04:56:39.633Z,3.25
2019-03-13T04:59:09.662Z,3.25
2019-03-13T05:01:39.694Z,4.50
2019-03-13T05:04:09.670Z,3.75
2019-03-13T05:06:39.708Z,3.75
2019-03-13T05:09:09.737Z,0.00
2019-03-13T05:11:39.763Z,2.50
2019-03-13T05:14:09.889Z,4.00
2019-03-13T05:16:40.195Z,5.00
2019-03-13T05:19:10.220Z,3.60
2019-03-13T05:21:40.224Z,4.50
2019-03-13T05:24:10.272Z,3.75
2019-03-13T05:26:40.246Z,12.25
2019-03-13T05:29:10.270Z,3.00
2019-03-13T05:31:40.732Z,5.20
2019-03-13T05:34:10.725Z,7.00
2019-03-13T05:36:40.781Z,4.00
2019-03-13T05:39:10.785Z,6.00
2019-03-13T05:41:40.826Z,5.60
2019-03-13T05:44:11.108Z,6.40
2019-03-13T05:46:42.774Z,7.40
2019-03-13T05:49:12.770Z,6.00
2019-03-13T05:51:42.808Z,6.60
2019-03-13T05:54:12.811Z,6.40
2019-03-13T05:56:42.849Z,4.00
2019-03-13T05:59:12.838Z,5.80
2019-03-13T06:01:43.153Z,3.80
2019-03-13T06:04:13.410Z,4.40
2019-03-13T06:06:43.372Z,6.00
2019-03-13T06:09:13.382Z,5.20
2019-03-13T06:11:43.452Z,3.80
2019-03-13T06:14:13.585Z,4.80
2019-03-13T06:16:43.868Z,7.00
2019-03-13T06:19:13.901Z,4.40
2019-03-13T06:21:43.920Z,0.40
2019-03-13T06:24:14.985Z,3.60
2019-03-13T06:26:45.000Z,4.00
2019-03-13T06:29:16.157Z,3.00
2019-03-13T06:31:46.202Z,3.00
2019-03-13T06:34:16.197Z,4.00
2019-03-13T06:36:46.549Z,3.20
2019-03-13T06:39:16.525Z,2.60
2019-03-13T06:41:46.660Z,3.40
2019-03-13T06:44:16.779Z,3.80
2019-03-13T06:46:46.812Z,4.40
2019-03-13T06:49:17.101Z,3.40
2019-03-13T06:51:47.139Z,3.00
2019-03-13T06:54:17.509Z,4.00
2019-03-13T06:56:47.573Z,4.00
2019-03-13T06:59:25.370Z,2.20
2019-03-13T07:02:03.045Z,4.00
2019-03-13T07:04:34.658Z,4.60
2019-03-13T07:07:06.304Z,2.40
2019-03-13T07:09:39.562Z,3.80
2019-03-13T07:12:20.878Z,2.00
2019-03-13T07:14:58.214Z,2.40
2019-03-13T07:17:35.755Z,2.20
2019-03-13T07:20:19.783Z,4.00
2019-03-13T07:23:07.295Z,4.00
2019-03-13T07:25:41.753Z,4.00
2019-03-13T07:28:29.849Z,4.20
2019-03-13T07:31:17.678Z,2.40
2019-03-13T07:33:55.294Z,2.00
2019-03-13T07:36:30.658Z,5.00
2019-03-13T07:39:02.259Z,2.80
2019-03-13T07:41:51.824Z,4.60
2019-03-13T07:44:40.114Z,4.80
2019-03-13T07:47:17.760Z,5.00
2019-03-13T07:49:49.427Z,2.80
2019-03-13T07:52:23.970Z,5.00
2019-03-13T07:55:09.065Z,6.60
2019-03-13T07:57:47.599Z,5.00
2019-03-13T08:00:35.586Z,6.60
2019-03-13T08:03:13.468Z,1.00
2019-03-13T08:06:01.555Z,8.00
2019-03-13T08:08:42.174Z,5.20
2019-03-13T08:11:20.026Z,4.00
2019-03-13T08:13:51.759Z,2.00
2019-03-13T08:16:39.589Z,7.00
2019-03-13T08:19:27.701Z,8.00
2019-03-13T08:22:15.525Z,6.00
2019-03-13T08:24:49.918Z,5.20
2019-03-13T08:27:37.801Z,9.20
2019-03-13T08:30:12.648Z,5.20
2019-03-13T08:32:47.119Z,8.00
2019-03-13T08:35:18.934Z,5.40
2019-03-13T08:37:56.621Z,4.40
2019-03-13T08:40:28.231Z,2.80
2019-03-13T08:42:59.853Z,6.20
2019-03-13T08:45:34.234Z,4.00
2019-03-13T08:48:05.880Z,7.60
2019-03-13T08:50:37.652Z,8.00
2019-03-13T08:53:09.273Z,7.60
2019-03-13T08:55:44.840Z,3.20
2019-03-13T08:58:17.573Z,5.80
2019-03-13T09:01:05.364Z,8.00
2019-03-13T09:03:37.256Z,9.20
2019-03-13T09:06:25.473Z,8.20
2019-03-13T09:09:13.087Z,8.80
2019-03-13T09:11:47.700Z,7.00
2019-03-13T09:14:19.663Z,7.00
2019-03-13T09:17:07.976Z,4.00
2019-03-13T09:19:45.898Z,9.00
2019-03-13T09:22:23.605Z,7.20
2019-03-13T09:25:12.799Z,11.20
2019-03-13T09:27:44.449Z,9.00
2019-03-13T09:30:16.046Z,6.60
2019-03-13T09:33:03.641Z,10.00
2019-03-13T09:35:52.051Z,11.40
2019-03-13T09:38:23.649Z,6.80
2019-03-13T09:41:11.422Z,12.80
2019-03-13T09:44:00.014Z,6.00
2019-03-13T09:46:31.974Z,10.80
2019-03-13T09:49:09.324Z,10.00
2019-03-13T09:51:40.990Z,4.80
2019-03-13T09:54:29.406Z,11.20
2019-03-13T09:57:18.437Z,11.60
2019-03-13T09:59:53.013Z,14.40
2019-03-13T10:02:27.530Z,9.00
2019-03-13T10:05:15.411Z,10.80
2019-03-13T10:07:53.082Z,8.20
2019-03-13T10:10:27.534Z,13.00
2019-03-13T10:13:02.326Z,8.40
2019-03-13T10:15:50.012Z,10.20
2019-03-13T10:18:21.663Z,2.40
2019-03-13T10:20:53.146Z,11.40
2019-03-13T10:23:27.836Z,11.60
2019-03-13T10:25:59.408Z,11.00
2019-03-13T10:28:31.046Z,8.80
2019-03-13T10:31:02.613Z,10.60
2019-03-13T10:33:36.777Z,9.00
2019-03-13T10:36:14.318Z,13.60
2019-03-13T10:38:48.936Z,11.00
2019-03-13T10:41:23.137Z,10.80
2019-03-13T10:43:54.745Z,13.80
2019-03-13T10:46:35.196Z,10.80
2019-03-13T10:49:09.831Z,11.00
2019-03-13T10:51:41.326Z,13.00
2019-03-13T10:54:22.133Z,11.60
2019-03-13T10:57:10.191Z,7.60
2019-03-13T10:59:50.718Z,11.40
2019-03-13T11:02:31.046Z,10.00
2019-03-13T11:05:02.623Z,11.20
2019-03-13T11:07:51.081Z,8.00
2019-03-13T11:10:28.802Z,11.00
2019-03-13T11:13:16.534Z,13.20
2019-03-13T11:16:04.660Z,11.80
2019-03-13T11:18:36.199Z,11.00
2019-03-13T11:21:07.771Z,7.60
2019-03-13T11:23:48.316Z,12.00
2019-03-13T11:26:36.192Z,7.20
2019-03-13T11:29:20.056Z,8.40
2019-03-13T11:32:07.845Z,12.60
2019-03-13T11:34:39.315Z,11.40
2019-03-13T11:37:13.778Z,9.60
2019-03-13T11:40:01.767Z,5.60
2019-03-13T11:42:36.893Z,10.40
2019-03-13T11:45:27.525Z,8.60
2019-03-13T11:47:59.122Z,5.80
2019-03-13T11:50:32.607Z,10.20
2019-03-13T11:53:03.869Z,13.00
2019-03-13T11:55:51.713Z,11.20
2019-03-13T11:58:29.333Z,8.00
2019-03-13T12:01:06.429Z,10.40
2019-03-13T12:03:41.122Z,10.80
2019-03-13T12:06:29.381Z,7.00
2019-03-13T12:09:16.916Z,11.20
2019-03-13T12:11:48.529Z,5.20
2019-03-13T12:14:26.573Z,8.40
2019-03-13T12:16:58.078Z,10.40
2019-03-13T12:19:32.743Z,10.60
2019-03-13T12:22:04.328Z,5.00
2019-03-13T12:24:52.293Z,8.20
2019-03-13T12:27:34.997Z,8.20
2019-03-13T12:30:17.291Z,10.20
2019-03-13T12:32:48.890Z,9.20
2019-03-13T12:35:20.515Z,6.00
2019-03-13T12:38:08.860Z,11.20
2019-03-13T12:40:46.660Z,8.80
2019-03-13T12:43:21.209Z,8.20
2019-03-13T12:45:52.870Z,8.00
2019-03-13T12:48:27.357Z,10.00
2019-03-13T12:51:07.997Z,7.60
2019-03-13T12:53:39.528Z,9.00
2019-03-13T12:56:29.951Z,4.60
2019-03-13T12:59:02.049Z,10.20
2019-03-13T13:01:33.660Z,4.00
2019-03-13T13:04:11.319Z,9.40
2019-03-13T13:06:45.659Z,6.20
2019-03-13T13:09:33.486Z,10.40
2019-03-13T13:12:21.514Z,2.40
2019-03-13T13:14:53.251Z,8.00
2019-03-13T13:17:40.967Z,10.40
2019-03-13T13:20:14.374Z,7.80
2019-03-13T13:22:44.342Z,10.20
2019-03-13T13:25:14.270Z,10.80
2019-03-13T13:27:44.247Z,11.80
2019-03-13T13:30:16.472Z,10.40
2019-03-13T13:32:46.473Z,10.00
2019-03-13T13:35:16.396Z,10.00
2019-03-13T13:37:47.562Z,9.20
2019-03-13T13:40:17.839Z,8.00
2019-03-13T13:42:48.114Z,9.60
2019-03-13T13:45:37.092Z,10.40
2019-03-13T13:48:07.029Z,11.40
2019-03-13T13:50:36.921Z,10.00
2019-03-13T13:53:06.958Z,9.40
2019-03-13T13:55:36.909Z,11.60
2019-03-13T13:58:06.903Z,8.80
2019-03-13T14:00:36.949Z,11.40
2019-03-13T14:03:06.886Z,9.80
2019-03-13T14:05:37.071Z,11.20
2019-03-13T14:08:06.968Z,12.00
2019-03-13T14:10:36.900Z,11.00
2019-03-13T14:13:07.173Z,10.40
2019-03-13T14:15:37.091Z,11.80
2019-03-13T14:18:07.061Z,13.20
2019-03-13T14:20:36.993Z,13.40
2019-03-13T14:23:07.307Z,9.40
2019-03-13T14:25:37.268Z,12.00
2019-03-13T14:28:07.522Z,11.80
2019-03-13T14:30:37.429Z,10.60
2019-03-13T14:33:07.459Z,11.00
2019-03-13T14:35:37.796Z,7.40
2019-03-13T14:38:07.765Z,12.60
2019-03-13T14:40:37.661Z,15.00
2019-03-13T14:43:07.861Z,14.20
2019-03-13T14:45:37.800Z,15.00
2019-03-13T14:48:08.784Z,11.00
2019-03-13T14:50:38.798Z,8.60
2019-03-13T14:53:08.778Z,13.00
2019-03-13T14:55:38.693Z,13.80
2019-03-13T14:58:08.673Z,16.60
2019-03-13T15:00:38.671Z,10.60
2019-03-13T15:03:08.632Z,15.20
2019-03-13T15:05:38.539Z,15.60
2019-03-13T15:08:08.626Z,16.40
2019-03-13T15:10:38.555Z,17.20
2019-03-13T15:13:08.524Z,13.00
2019-03-13T15:15:38.470Z,16.80
2019-03-13T15:18:08.451Z,16.20
2019-03-13T15:20:38.361Z,13.20
2019-03-13T15:23:08.296Z,16.40
2019-03-13T15:25:38.459Z,16.20
2019-03-13T15:28:08.504Z,18.80
2019-03-13T15:30:38.417Z,18.20
2019-03-13T15:33:08.410Z,17.00
2019-03-13T15:35:38.331Z,17.20
2019-03-13T15:38:08.333Z,13.80
2019-03-13T15:40:38.340Z,8.60
2019-03-13T15:43:08.315Z,19.80
2019-03-13T15:45:38.242Z,17.20
2019-03-13T15:48:08.231Z,18.00
2019-03-13T15:50:38.152Z,17.20
2019-03-13T15:53:08.231Z,21.60
2019-03-13T15:55:38.136Z,16.00
2019-03-13T15:58:08.172Z,17.40
2019-03-13T16:00:38.163Z,12.00
2019-03-13T16:03:08.467Z,20.40
2019-03-13T16:05:38.424Z,15.80
2019-03-13T16:08:08.456Z,10.80
2019-03-13T16:10:38.439Z,17.20
2019-03-13T16:13:08.456Z,15.00
2019-03-13T16:15:45.873Z,18.20
2019-03-13T16:18:14.421Z,18.80
2019-03-13T16:20:44.325Z,18.00
2019-03-13T16:23:17.140Z,18.00
2019-03-13T16:25:46.478Z,9.60
2019-03-13T16:28:17.957Z,15.60
2019-03-13T16:30:49.843Z,17.60
2019-03-13T16:33:19.891Z,18.20
2019-03-13T16:35:49.819Z,21.80
2019-03-13T16:38:19.745Z,20.20
2019-03-13T16:40:49.817Z,21.60
2019-03-13T16:43:19.770Z,18.40
2019-03-13T16:45:49.758Z,21.60
2019-03-13T16:48:19.761Z,18.40
2019-03-13T16:50:50.194Z,23.20
2019-03-13T16:53:20.194Z,17.20
2019-03-13T16:55:50.223Z,20.60
2019-03-13T16:58:20.221Z,17.00
2019-03-13T17:00:50.716Z,18.60
2019-03-13T17:03:20.964Z,17.60
2019-03-13T17:05:50.992Z,14.20
2019-03-13T17:08:21.021Z,18.60
2019-03-13T17:10:51.024Z,13.40
2019-03-13T17:13:21.040Z,15.20
2019-03-13T17:15:53.011Z,18.80
2019-03-13T17:18:23.121Z,22.40
2019-03-13T17:20:53.131Z,18.80
2019-03-13T17:23:23.145Z,16.20
2019-03-13T17:25:53.206Z,16.20
2019-03-13T17:28:23.666Z,20.40
2019-03-13T17:30:53.760Z,21.60
2019-03-13T17:33:24.866Z,19.20
2019-03-13T17:35:55.018Z,21.80
2019-03-13T17:38:25.418Z,18.20
2019-03-13T17:40:55.361Z,18.20
2019-03-13T17:43:38.162Z,22.60
2019-03-13T17:45:57.315Z,23.20
2019-03-13T17:48:27.480Z,14.60
2019-03-13T17:50:57.516Z,17.80
2019-03-13T17:53:27.728Z,17.60
2019-03-13T17:55:57.685Z,18.00
2019-03-13T17:58:28.786Z,14.20
2019-03-13T18:00:58.886Z,18.60
2019-03-13T18:03:29.097Z,19.40
2019-03-13T18:05:59.175Z,21.80
2019-03-13T18:08:29.151Z,20.20
2019-03-13T18:10:59.158Z,15.00
2019-03-13T18:13:29.178Z,16.40
2019-03-13T18:15:59.813Z,17.40
2019-03-13T18:18:31.358Z,20.60
2019-03-13T18:21:01.378Z,22.60
2019-03-13T18:23:31.388Z,20.80
2019-03-13T18:26:01.519Z,9.20
2019-03-13T18:28:31.518Z,16.40
2019-03-13T18:31:02.189Z,15.40
2019-03-13T18:33:33.258Z,17.00
2019-03-13T18:36:03.317Z,20.60
2019-03-13T18:38:34.386Z,14.20
2019-03-13T18:41:04.466Z,15.20
2019-03-13T18:43:34.486Z,16.40
2019-03-13T18:46:04.490Z,12.20
2019-03-13T18:48:34.512Z,13.40
2019-03-13T18:51:04.530Z,17.60
2019-03-13T18:53:34.539Z,19.40
2019-03-13T18:56:04.550Z,15.00
2019-03-13T18:58:35.115Z,23.20
2019-03-13T19:01:05.306Z,19.40
2019-03-13T19:03:36.338Z,20.60
2019-03-13T19:06:06.398Z,13.40
2019-03-13T19:08:36.370Z,21.60
2019-03-13T19:11:06.589Z,14.20
2019-03-13T19:13:36.687Z,16.40
2019-03-13T19:16:06.729Z,17.20
2019-03-13T19:18:36.816Z,19.80
2019-03-13T19:21:06.859Z,16.40
2019-03-13T19:23:36.960Z,23.80
2019-03-13T19:26:06.996Z,17.20
2019-03-13T19:28:37.043Z,21.00
2019-03-13T19:31:07.129Z,19.20
2019-03-13T19:33:37.155Z,18.60
2019-03-13T19:36:07.346Z,18.60
2019-03-13T19:38:41.080Z,10.20
2019-03-13T19:41:10.857Z,15.80
2019-03-13T19:43:40.842Z,16.00
2019-03-13T19:46:12.718Z,17.60
2019-03-13T19:48:42.755Z,15.20
2019-03-13T19:51:12.756Z,18.40
2019-03-13T19:53:42.805Z,19.20
2019-03-13T19:56:12.769Z,18.00
2019-03-13T19:58:42.808Z,18.60
2019-03-13T20:01:12.924Z,16.00
2019-03-13T20:03:54.700Z,11.20
2019-03-13T20:06:14.770Z,18.20
2019-03-13T20:08:44.725Z,13.40
2019-03-13T20:11:14.652Z,16.40
2019-03-13T20:13:44.665Z,11.80
2019-03-13T20:16:14.862Z,17.20
2019-03-13T20:18:45.074Z,18.20
2019-03-13T20:21:15.091Z,19.20
2019-03-13T20:23:45.216Z,17.40
2019-03-13T20:26:15.324Z,18.20
2019-03-13T20:28:46.298Z,21.40
2019-03-13T20:31:16.567Z,19.80
2019-03-13T20:33:46.713Z,20.60
2019-03-13T20:36:16.717Z,20.00
2019-03-13T20:38:47.379Z,13.40
2019-03-13T20:41:17.559Z,14.80
2019-03-13T20:43:47.799Z,18.00
2019-03-13T20:46:18.001Z,13.00
2019-03-13T20:48:48.113Z,10.80
2019-03-13T20:51:18.171Z,21.00
2019-03-13T20:53:48.214Z,16.00
2019-03-13T20:56:18.162Z,16.40
2019-03-13T20:58:48.181Z,19.60
2019-03-13T21:01:18.611Z,21.60
2019-03-13T21:03:48.840Z,22.40
2019-03-13T21:06:18.842Z,15.00
2019-03-13T21:08:48.814Z,21.80
2019-03-13T21:11:19.070Z,17.00
2019-03-13T21:13:49.197Z,17.20
2019-03-13T21:16:19.411Z,18.40
2019-03-13T21:18:50.360Z,17.80
2019-03-13T21:21:20.380Z,19.00
2019-03-13T21:23:50.301Z,19.20
2019-03-13T21:26:20.301Z,21.60
2019-03-13T21:28:50.251Z,18.00
2019-03-13T21:31:20.164Z,23.60
2019-03-13T21:33:50.131Z,18.20
2019-03-13T21:36:20.047Z,20.60
2019-03-13T21:38:50.011Z,19.40
2019-03-13T21:41:19.926Z,23.00
2019-03-13T21:43:51.111Z,22.80
2019-03-13T21:46:21.264Z,19.20
2019-03-13T21:48:51.256Z,14.80
2019-03-13T21:51:21.184Z,19.20
2019-03-13T21:53:51.115Z,21.20
2019-03-13T21:56:21.126Z,20.80
2019-03-13T21:58:51.057Z,25.40
2019-03-13T22:01:21.018Z,21.80
2019-03-13T22:03:50.931Z,20.40
2019-03-13T22:06:28.805Z,19.80
2019-03-13T22:08:52.504Z,25.20
2019-03-13T22:11:22.800Z,19.00
2019-03-13T22:13:52.741Z,21.80
2019-03-13T22:16:22.734Z,22.40
2019-03-13T22:18:52.673Z,19.80
2019-03-13T22:21:22.724Z,24.20
2019-03-13T22:23:52.651Z,19.00
2019-03-13T22:26:22.652Z,23.20
2019-03-13T22:28:53.713Z,18.00
2019-03-13T22:31:23.685Z,23.40
2019-03-13T22:33:54.723Z,20.60
2019-03-13T22:36:24.713Z,21.60
2019-03-13T22:38:54.650Z,23.80
2019-03-13T22:41:24.630Z,14.60
2019-03-13T22:43:54.620Z,18.40
2019-03-13T22:46:24.594Z,20.60
2019-03-13T22:48:58.334Z,20.60
2019-03-13T22:51:26.162Z,17.80
2019-03-13T22:53:56.078Z,19.00
2019-03-13T22:56:26.059Z,19.20
2019-03-13T22:58:55.988Z,19.20
2019-03-13T23:01:26.188Z,19.80
2019-03-13T23:03:56.492Z,16.20
2019-03-13T23:06:26.452Z,17.00
2019-03-13T23:08:56.368Z,14.20
2019-03-13T23:11:26.352Z,16.80
2019-03-13T23:13:56.274Z,21.80
2019-03-13T23:16:26.188Z,20.40
2019-03-13T23:18:56.167Z,18.60
2019-03-13T23:21:26.163Z,18.60
2019-03-13T23:23:56.169Z,14.80
2019-03-13T23:26:26.120Z,17.60
2019-03-13T23:28:56.108Z,16.80
2019-03-13T23:31:26.058Z,17.00
2019-03-13T23:33:56.071Z,21.00
2019-03-13T23:36:26.052Z,19.60
2019-03-13T23:38:56.032Z,18.80
2019-03-13T23:41:25.955Z,15.20
2019-03-13T23:43:58.745Z,18.80
2019-03-13T23:46:28.654Z,20.60
2019-03-13T23:48:58.636Z,20.20
2019-03-13T23:51:28.555Z,17.40
2019-03-13T23:53:58.503Z,18.60
2019-03-13T23:56:28.441Z,18.80
2019-03-13T23:58:58.433Z,15.60
